Time;durP1;ratioP1;P1;durP2;ratioP2;P2;SDS_P1;SDS_P2;PMS_P1;PMS_P2;Temp;Humidity;BMP_temperature;BMP_pressure;BME280_temperature;BME280_humidity;BME280_pressure;Samples;Min_cycle;Max_cycle;Signal;HPM_P1;HPM_P2
2023/02/03 00:00:37;;;;;;;55.43;6.10;;;;;;;;;;5031680;28;20184;-55
2023/02/03 00:03:02;;;;;;;13.30;4.43;;;4.70;99.90;;;;;;5029654;28;20184;-54
2023/02/03 00:05:30;;;;;;;3.73;3.43;;;5.00;99.90;;;;;;5031778;28;20207;-55
2023/02/03 00:07:56;;;;;;;3.60;3.30;;;5.20;99.90;;;;;;5030293;28;20190;-56
2023/02/03 00:10:22;;;;;;;10.83;3.77;;;4.90;99.90;;;;;;5030856;28;20214;-52
2023/02/03 00:12:49;;;;;;;6.70;4.13;;;;;;;;;;5031156;28;20612;-56
2023/02/03 00:15:15;;;;;;;3.83;3.53;;;;;;;;;;5031124;28;20251;-54
2023/02/03 00:17:40;;;;;;;3.57;3.27;;;;;;;;;;5031337;28;20687;-56
2023/02/03 00:20:07;;;;;;;3.63;3.33;;;4.90;99.90;;;;;;5031621;28;20190;-51
2023/02/03 00:22:33;;;;;;;5.57;4.57;;;;;;;;;;5070776;23;20210;-45
2023/02/03 00:24:59;;;;;;;3.60;3.30;;;;;;;;;;5005942;28;20200;-50
2023/02/03 00:27:25;;;;;;;5.37;3.50;;;;;;;;;;5010962;28;20177;-50
2023/02/03 00:29:51;;;;;;;2.93;2.73;;;;;;;;;;5010831;28;20222;-50
2023/02/03 00:32:17;;;;;;;3.47;3.17;;;;;;;;;;5001003;28;20229;-48
2023/02/03 00:34:42;;;;;;;3.40;3.10;;;;;;;;;;4998150;28;20184;-50
2023/02/03 00:37:09;;;;;;;3.20;3.00;;;;;;;;;;4992058;28;20180;-50
2023/02/03 00:39:37;;;;;;;22.87;5.00;;;5.30;99.90;;;;;;4995463;28;20181;-51
2023/02/03 00:42:03;;;;;;;7.37;3.57;;;4.30;99.90;;;;;;4991594;28;20196;-50
2023/02/03 00:44:29;;;;;;;16.90;4.50;;;;;;;;;;4992678;28;20689;-50
2023/02/03 00:46:55;;;;;;;17.03;4.33;;;4.60;99.90;;;;;;4992206;28;20173;-50
2023/02/03 00:49:21;;;;;;;4.37;3.53;;;;;;;;;;4992857;28;20173;-53
2023/02/03 00:51:47;;;;;;;10.30;4.13;;;;;;;;;;4992508;28;20212;-56
2023/02/03 00:54:13;;;;;;;12.97;4.40;;;;;;;;;;4992676;28;20272;-51
2023/02/03 00:56:39;;;;;;;5.40;3.90;;;4.80;99.90;;;;;;4992694;28;20236;-50
2023/02/03 00:59:05;;;;;;;3.70;3.40;;;;;;;;;;4991074;28;20181;-50
2023/02/03 01:01:31;;;;;;;4.97;4.47;;;;;;;;;;4992583;28;20801;-51
2023/02/03 01:07:01;;;;;;;5.23;4.73;;;;;;;;;;5004261;28;20632;-91
2023/02/03 01:09:27;;;;;;;5.77;5.13;;;;;;;;;;4979353;28;20287;-91
2023/02/03 01:11:53;;;;;;;4.73;4.27;;;;;;;;;;4968022;28;20217;-88
2023/02/03 01:14:19;;;;;;;4.63;4.10;;;;;;;;;;4978200;28;20206;-92
2023/02/03 01:16:45;;;;;;;5.30;4.27;;;;;;;;;;4984717;28;20244;-90
2023/02/03 01:21:40;;;;;;;4.73;4.33;;;4.70;99.90;;;;;;5009436;23;20727;-55
2023/02/03 01:24:08;;;;;;;4.63;4.20;;;;;;;;;;4992848;28;20264;-57
2023/02/03 01:26:34;;;;;;;4.07;3.67;;;4.80;99.90;;;;;;4993938;28;20177;-56
2023/02/03 01:29:00;;;;;;;3.77;3.47;;;4.90;99.90;;;;;;4994918;28;20174;-56
2023/02/03 01:31:38;;;;;;;4.37;3.97;;;4.90;99.90;;;;;;4994850;28;20567;-57
2023/02/03 01:34:05;;;;;;;3.33;3.07;;;4.80;99.90;;;;;;4988230;28;20185;-57
2023/02/03 01:36:32;;;;;;;4.37;3.97;;;;;;;;;;4994563;28;20181;-55
2023/02/03 01:38:58;;;;;;;4.17;3.77;;;;;;;;;;4994142;28;20173;-55
2023/02/03 01:41:28;;;;;;;4.83;4.40;;;;;;;;;;4994848;28;20729;-55
2023/02/03 01:43:55;;;;;;;4.00;3.60;;;;;;;;;;4994737;28;20256;-56
2023/02/03 01:46:29;;;;;;;4.30;3.87;;;5.10;99.90;;;;;;4994159;28;20251;-56
2023/02/03 01:48:58;;;;;;;4.27;3.87;;;;;;;;;;4986898;28;20192;-56
2023/02/03 01:51:24;;;;;;;3.77;3.47;;;;;;;;;;4994595;28;20212;-57
2023/02/03 01:53:52;;;;;;;4.73;4.33;;;5.30;99.90;;;;;;4994425;28;20205;-53
2023/02/03 01:56:19;;;;;;;4.40;4.00;;;;;;;;;;4993137;28;20711;-58
2023/02/03 01:58:46;;;;;;;4.50;4.10;;;5.50;99.90;;;;;;4993867;28;20264;-56
2023/02/03 02:01:12;;;;;;;4.60;4.20;;;;;;;;;;4994355;28;20243;-57
2023/02/03 02:03:46;;;;;;;5.27;4.77;;;5.50;99.90;;;;;;4994298;28;20232;-57
2023/02/03 02:06:13;;;;;;;6.20;5.17;;;5.40;99.90;;;;;;4994153;28;20180;-54
2023/02/03 02:08:40;;;;;;;5.10;4.60;;;;;;;;;;4994204;28;20263;-56
2023/02/03 02:11:06;;;;;;;5.07;4.57;;;5.20;99.90;;;;;;4994271;28;20204;-57
2023/02/03 02:13:33;;;;;;;5.40;4.90;;;5.20;99.90;;;;;;4994003;28;20205;-54
2023/02/03 02:16:16;;;;;;;4.47;4.07;;;;;;;;;;4993982;28;20248;-53
2023/02/03 02:19:03;;;;;;;4.87;4.37;;;;;;;;;;4994075;28;20187;-55
2023/02/03 02:21:34;;;;;;;4.57;4.17;;;;;;;;;;4993934;28;20279;-50
2023/02/03 02:24:13;;;;;;;4.43;4.03;;;;;;;;;;4993951;28;20639;-50
2023/02/03 02:27:05;;;;;;;5.43;4.57;;;4.80;99.90;;;;;;4993618;28;20227;-52
2023/02/03 02:29:40;;;;;;;4.57;4.17;;;;;;;;;;4993081;28;20209;-52
2023/02/03 02:32:09;;;;;;;4.40;4.00;;;;;;;;;;4993723;28;20247;-51
2023/02/03 02:35:02;;;;;;;4.23;3.83;;;4.70;99.90;;;;;;4993635;28;20679;-53
2023/02/03 02:37:43;;;;;;;4.40;4.00;;;;;;;;;;4993771;28;20181;-52
2023/02/03 02:40:15;;;;;;;4.27;3.87;;;;;;;;;;4993648;28;20705;-51
2023/02/03 02:42:53;;;;;;;5.33;4.50;;;;;;;;;;4993687;28;20176;-51
2023/02/03 02:45:25;;;;;;;5.00;4.50;;;;;;;;;;4978633;28;20329;-51
2023/02/03 02:47:54;;;;;;;4.50;4.10;;;;;;;;;;4974168;28;20552;-52
2023/02/03 02:50:23;;;;;;;4.77;4.30;;;;;;;;;;4974114;28;20210;-52
2023/02/03 02:52:51;;;;;;;4.50;4.10;;;5.00;99.90;;;;;;4973981;28;20590;-53
2023/02/03 02:55:23;;;;;;;4.30;3.70;;;;;;;;;;4973774;28;20579;-50
2023/02/03 02:57:52;;;;;;;4.70;4.27;;;5.10;99.90;;;;;;4974198;28;20194;-51
2023/02/03 03:00:18;;;;;;;4.27;3.87;;;;;;;;;;4973976;28;20209;-51
2023/02/03 03:02:44;;;;;;;4.83;4.07;;;;;;;;;;4972665;28;20185;-51
2023/02/03 03:05:11;;;;;;;5.03;4.53;;;5.30;99.90;;;;;;4973680;28;20204;-51
2023/02/03 03:07:53;;;;;;;4.83;3.87;;;5.30;99.90;;;;;;4973790;28;20252;-50
2023/02/03 03:10:23;;;;;;;4.70;4.27;;;;;;;;;;4973832;28;20209;-51
2023/02/03 03:12:53;;;;;;;4.33;3.93;;;5.00;99.90;;;;;;4992422;28;20201;-52
2023/02/03 03:15:23;;;;;;;5.30;4.37;;;5.10;99.90;;;;;;4993165;28;20546;-54
2023/02/03 03:17:57;;;;;;;4.77;3.93;;;;;;;;;;4992891;28;20173;-54
2023/02/03 03:20:25;;;;;;;4.33;3.93;;;5.20;99.90;;;;;;4992873;28;20217;-54
2023/02/03 03:22:58;;;;;;;4.17;3.67;;;5.30;99.90;;;;;;4992942;28;20192;-53
2023/02/03 03:25:25;;;;;;;4.33;3.93;;;;;;;;;;4992788;28;20664;-52
2023/02/03 03:27:53;;;;;;;4.93;4.00;;;;;;;;;;4992738;28;20181;-55
2023/02/03 03:30:22;;;;;;;4.40;4.00;;;5.20;99.90;;;;;;4992715;28;20623;-53
2023/02/03 03:32:49;;;;;;;4.10;3.70;;;5.30;99.90;;;;;;4992448;28;20216;-53
2023/02/03 03:35:15;;;;;;;4.47;4.00;;;5.20;99.90;;;;;;4992426;28;20188;-54
2023/02/03 03:37:44;;;;;;;4.40;4.00;;;;;;;;;;4990798;28;20239;-54
2023/02/03 03:40:11;;;;;;;4.93;4.40;;;;;;;;;;4992467;28;20197;-55
2023/02/03 03:42:40;;;;;;;4.70;4.07;;;;;;;;;;4992011;28;20196;-54
2023/02/03 03:45:18;;;;;;;4.17;3.77;;;;;;;;;;4992154;28;20193;-52
2023/02/03 03:47:47;;;;;;;4.20;3.80;;;;;;;;;;4992291;28;20189;-54
2023/02/03 03:50:17;;;;;;;4.13;3.73;;;;;;;;;;4992234;28;20209;-53
2023/02/03 03:52:44;;;;;;;4.20;3.80;;;;;;;;;;4992287;28;20283;-56
2023/02/03 03:55:13;;;;;;;3.97;3.57;;;;;;;;;;4992124;28;20177;-55
2023/02/03 03:57:50;;;;;;;4.20;3.80;;;4.60;99.90;;;;;;4991982;28;20192;-54
2023/02/03 04:00:19;;;;;;;3.80;3.47;;;4.70;99.90;;;;;;4992170;28;20334;-53
2023/02/03 04:02:49;;;;;;;5.13;3.93;;;;;;;;;;4992099;28;20276;-53
2023/02/03 04:05:15;;;;;;;4.57;3.60;;;;;;;;;;4991902;28;20228;-56
2023/02/03 04:07:44;;;;;;;3.80;3.50;;;4.60;99.90;;;;;;4992087;28;20713;-57
2023/02/03 04:10:28;;;;;;;3.87;3.47;;;;;;;;;;4991930;28;20324;-56
2023/02/03 04:12:54;;;;;;;3.90;3.47;;;;;;;;;;4992077;28;20575;-53
2023/02/03 04:15:20;;;;;;;5.17;3.90;;;;;;;;;;4990798;28;20185;-54
2023/02/03 04:17:46;;;;;;;4.60;3.87;;;;;;;;;;4991919;28;20228;-57
2023/02/03 04:20:12;;;;;;;3.97;3.60;;;4.60;99.90;;;;;;4991825;28;20224;-54
2023/02/03 04:22:38;;;;;;;4.63;3.70;;;4.50;99.90;;;;;;4991788;28;20196;-50
2023/02/03 04:25:04;;;;;;;4.40;3.60;;;;;;;;;;4987008;28;20516;-56
2023/02/03 04:27:30;;;;;;;5.17;3.47;;;;;;;;;;4972536;28;20189;-54
2023/02/03 04:29:56;;;;;;;4.20;3.60;;;;;;;;;;4972539;28;20875;-52
2023/02/03 04:32:22;;;;;;;4.10;3.70;;;;;;;;;;4972507;28;20599;-54
2023/02/03 04:34:48;;;;;;;3.90;3.47;;;;;;;;;;4972204;28;20691;-53
2023/02/03 04:37:14;;;;;;;3.90;3.50;;;;;;;;;;4972454;28;20224;-56
2023/02/03 04:39:40;;;;;;;4.80;3.23;;;;;;;;;;4972336;28;20205;-53
2023/02/03 04:42:05;;;;;;;6.30;3.93;;;4.30;99.90;;;;;;4972482;28;20192;-55
2023/02/03 04:44:31;;;;;;;3.70;3.40;;;;;;;;;;4972322;28;20185;-57
2023/02/03 04:46:57;;;;;;;5.00;4.17;;;;;;;;;;4972118;28;20225;-55
2023/02/03 04:49:23;;;;;;;5.13;4.03;;;;;;;;;;4972357;28;20268;-51
2023/02/03 04:51:49;;;;;;;4.70;3.53;;;;;;;;;;4972256;28;20182;-56
2023/02/03 04:54:15;;;;;;;5.20;3.97;;;;;;;;;;4973086;28;20209;-54
2023/02/03 04:56:41;;;;;;;5.37;4.33;;;;;;;;;;4975909;28;20220;-54
2023/02/03 04:59:07;;;;;;;4.53;4.13;;;;;;;;;;4976130;28;20185;-53
2023/02/03 05:01:33;;;;;;;5.67;4.17;;;;;;;;;;4975975;28;20198;-56
2023/02/03 05:03:59;;;;;;;6.33;4.27;;;;;;;;;;4976294;28;20182;-52
2023/02/03 05:06:31;;;;;;;5.33;3.57;;;4.20;99.90;;;;;;4975915;28;20186;-54
2023/02/03 05:08:57;;;;;;;8.37;4.00;;;;;;;;;;4988044;28;20235;-56
2023/02/03 05:11:23;;;;;;;4.03;3.63;;;3.60;99.90;;;;;;4995496;28;20209;-57
2023/02/03 05:13:49;;;;;;;4.67;4.10;;;;;;;;;;4995395;28;20217;-56
2023/02/03 05:16:15;;;;;;;5.40;4.20;;;;;;;;;;4995180;28;20239;-56
2023/02/03 05:18:41;;;;;;;5.00;4.27;;;;;;;;;;4995271;28;20181;-57
2023/02/03 05:21:07;;;;;;;5.30;3.93;;;3.30;99.90;;;;;;4995276;28;20217;-55
2023/02/03 05:23:33;;;;;;;5.47;4.27;;;;;;;;;;4995232;28;20365;-55
2023/02/03 05:25:59;;;;;;;4.10;3.77;;;;;;;;;;4982880;28;20618;-50
2023/02/03 05:28:25;;;;;;;5.77;4.40;;;;;;;;;;4975829;28;20194;-52
2023/02/03 05:30:51;;;;;;;6.47;4.53;;;;;;;;;;4975708;28;20232;-54
2023/02/03 05:33:17;;;;;;;5.20;3.93;;;;;;;;;;4975633;28;20672;-54
2023/02/03 05:35:43;;;;;;;4.97;4.07;;;3.90;99.90;;;;;;4975178;28;20181;-55
2023/02/03 05:38:08;;;;;;;5.63;4.03;;;3.70;99.90;;;;;;4975598;28;20186;-56
2023/02/03 05:43:19;;;;;;;6.23;4.00;;;3.60;99.90;;;;;;4994951;28;20195;-57
2023/02/03 05:45:45;;;;;;;6.57;4.07;;;;;;;;;;4994407;28;20269;-56
2023/02/03 05:48:11;;;;;;;5.73;4.20;;;;;;;;;;4994825;28;20181;-57
2023/02/03 05:50:37;;;;;;;5.17;4.03;;;3.30;99.90;;;;;;4994671;28;20280;-53
2023/02/03 05:53:04;;;;;;;4.50;4.00;;;;;;;;;;4994239;28;20623;-57
2023/02/03 05:55:30;;;;;;;5.30;3.93;;;3.40;99.90;;;;;;4990926;28;20181;-56
2023/02/03 05:57:56;;;;;;;4.50;3.67;;;3.80;99.90;;;;;;4994700;28;20268;-53
2023/02/03 06:00:22;;;;;;;3.80;3.47;;;3.70;99.90;;;;;;4994587;28;20607;-55
2023/02/03 06:02:52;;;;;;;4.00;3.17;;;3.80;99.90;;;;;;4994421;28;20232;-55
2023/02/03 06:05:18;;;;;;;4.47;3.53;;;3.80;99.90;;;;;;4993496;28;20239;-49
2023/02/03 06:07:43;;;;;;;3.50;3.20;;;4.00;99.90;;;;;;4994202;28;20275;-52
2023/02/03 06:10:09;;;;;;;4.93;3.40;;;4.10;99.90;;;;;;4994389;28;20216;-55
2023/02/03 06:12:37;;;;;;;3.77;3.40;;;4.10;99.90;;;;;;4994272;28;20205;-54
2023/02/03 06:15:03;;;;;;;5.37;3.17;;;3.90;99.90;;;;;;4994075;28;20173;-52
2023/02/03 06:17:29;;;;;;;4.50;3.23;;;;;;;;;;4994180;28;20185;-53
2023/02/03 06:19:54;;;;;;;3.77;3.00;;;4.00;99.90;;;;;;4994109;28;20220;-51
2023/02/03 06:22:20;;;;;;;4.53;3.27;;;3.80;99.90;;;;;;4993060;28;20181;-51
2023/02/03 06:24:47;;;;;;;4.07;3.27;;;3.80;99.90;;;;;;4993853;28;20720;-57
2023/02/03 06:27:13;;;;;;;5.80;3.20;;;3.80;99.90;;;;;;4994105;28;20644;-53
2023/02/03 06:29:39;;;;;;;4.60;3.10;;;3.50;99.90;;;;;;4993854;28;20209;-55
2023/02/03 06:32:05;;;;;;;4.23;3.30;;;3.60;99.90;;;;;;4994112;28;20746;-56
2023/02/03 06:34:32;;;;;;;3.93;3.50;;;3.50;99.90;;;;;;4993697;28;20213;-53
2023/02/03 06:36:57;;;;;;;5.53;3.60;;;3.70;99.90;;;;;;4993707;28;20177;-52
2023/02/03 06:39:23;;;;;;;4.03;3.20;;;3.50;99.90;;;;;;4993851;28;20260;-55
2023/02/03 06:41:50;;;;;;;3.87;3.23;;;3.70;99.90;;;;;;4993847;28;20186;-53
2023/02/03 06:44:16;;;;;;;6.93;3.30;;;3.40;99.90;;;;;;4993719;28;20181;-52
2023/02/03 06:46:42;;;;;;;4.10;2.90;;;3.60;99.90;;;;;;4993436;28;20197;-56
2023/02/03 06:49:07;;;;;;;5.53;3.40;;;3.70;99.90;;;;;;4993774;28;20562;-52
2023/02/03 06:51:33;;;;;;;5.50;3.47;;;3.80;99.90;;;;;;4993538;28;20209;-53
2023/02/03 06:53:58;;;;;;;5.83;3.57;;;3.90;99.90;;;;;;4990295;28;20205;-54
2023/02/03 06:56:24;;;;;;;5.50;3.00;;;3.90;99.90;;;;;;4987807;28;20787;-52
2023/02/03 06:58:50;;;;;;;3.83;2.80;;;3.90;99.90;;;;;;4985937;28;20521;-52
2023/02/03 07:01:16;;;;;;;5.53;2.77;;;;;;;;;;4985893;28;20201;-55
2023/02/03 07:03:42;;;;;;;3.27;2.77;;;;;;;;;;4983890;28;20356;-54
2023/02/03 07:06:07;;;;;;;3.40;2.90;;;3.80;99.90;;;;;;4979484;28;20579;-55
2023/02/03 07:08:33;;;;;;;4.03;2.80;;;3.90;99.90;;;;;;4983247;28;20181;-58
2023/02/03 07:10:58;;;;;;;3.03;2.40;;;3.90;99.90;;;;;;4993346;28;20204;-54
2023/02/03 07:13:24;;;;;;;4.97;2.97;;;3.90;99.90;;;;;;4993677;28;20236;-55
2023/02/03 07:15:50;;;;;;;4.60;2.80;;;3.90;99.90;;;;;;4992067;28;20701;-56
2023/02/03 07:18:16;;;;;;;3.67;2.80;;;4.00;99.90;;;;;;4991524;28;20181;-57
2023/02/03 07:20:42;;;;;;;3.03;2.77;;;4.10;99.90;;;;;;4985094;28;20343;-54
2023/02/03 07:23:08;;;;;;;3.07;2.60;;;4.10;99.90;;;;;;4987016;28;20295;-54
2023/02/03 07:25:33;;;;;;;3.73;2.37;;;4.20;99.90;;;;;;4991040;28;20177;-53
2023/02/03 07:27:59;;;;;;;3.17;2.60;;;4.20;99.90;;;;;;4986149;28;20189;-55
2023/02/03 07:30:24;;;;;;;4.57;2.53;;;4.10;99.90;;;;;;4991906;28;20202;-54
2023/02/03 07:32:51;;;;;;;3.60;2.80;;;4.00;99.90;;;;;;5082658;23;20969;-48
2023/02/03 07:35:17;;;;;;;3.03;1.80;;;4.00;99.90;;;;;;4966267;28;20633;-55
2023/02/03 07:37:43;;;;;;;3.67;2.40;;;4.00;99.90;;;;;;4974243;28;20178;-52
2023/02/03 07:40:13;;;;;;;3.20;2.13;;;4.00;99.90;;;;;;4972948;28;20182;-48
2023/02/03 07:42:43;;;;;;;2.73;2.17;;;3.90;99.90;;;;;;4970204;28;20201;-45
2023/02/03 07:45:09;;;;;;;3.50;2.60;;;3.90;99.90;;;;;;4967173;28;20662;-44
2023/02/03 07:47:35;;;;;;;3.10;2.13;;;3.90;99.90;;;;;;4970350;28;20181;-46
2023/02/03 07:50:00;;;;;;;2.27;1.87;;;3.90;99.90;;;;;;4973424;28;20177;-45
2023/02/03 07:52:26;;;;;;;2.80;2.00;;;3.90;99.90;;;;;;4972851;28;20201;-50
2023/02/03 07:54:51;;;;;;;2.73;2.20;;;3.90;99.90;;;;;;4964716;28;20556;-51
2023/02/03 07:57:17;;;;;;;5.13;2.33;;;4.00;99.90;;;;;;4972493;28;20190;-48
2023/02/03 07:59:42;;;;;;;3.50;2.20;;;4.00;99.90;;;;;;4968507;28;20256;-48
2023/02/03 08:02:10;;;;;;;1.97;1.87;;;4.10;99.90;;;;;;4965195;28;20220;-47
2023/02/03 08:04:36;;;;;;;2.27;1.90;;;4.10;99.90;;;;;;4986480;28;20216;-48
2023/02/03 08:07:02;;;;;;;3.40;2.17;;;4.10;99.90;;;;;;4955158;28;20173;-48
2023/02/03 08:09:28;;;;;;;2.67;2.37;;;4.10;99.90;;;;;;4970915;28;20797;-49
2023/02/03 08:11:53;;;;;;;1.80;1.70;;;4.20;99.90;;;;;;4973344;28;20295;-49
2023/02/03 08:14:19;;;;;;;2.63;1.93;;;4.20;99.90;;;;;;4966496;28;20209;-49
2023/02/03 08:16:45;;;;;;;2.40;2.20;;;4.10;99.90;;;;;;4966682;28;20185;-50
2023/02/03 08:19:11;;;;;;;2.27;1.90;;;4.20;99.90;;;;;;4965596;28;20177;-50
2023/02/03 08:21:37;;;;;;;3.27;1.90;;;4.20;99.90;;;;;;4963303;28;20232;-50
2023/02/03 08:24:02;;;;;;;2.97;2.03;;;4.10;99.90;;;;;;4964614;28;20213;-52
2023/02/03 08:26:28;;;;;;;3.03;2.10;;;4.10;99.90;;;;;;4965172;28;20264;-44
2023/02/03 08:28:54;;;;;;;2.43;1.70;;;4.10;99.90;;;;;;4964633;28;20170;-48
2023/02/03 08:31:19;;;;;;;2.20;1.80;;;4.10;99.90;;;;;;4964415;28;20367;-46
2023/02/03 08:33:45;;;;;;;4.20;2.00;;;4.20;99.90;;;;;;4966476;28;20217;-49
2023/02/03 08:36:11;;;;;;;2.03;1.83;;;4.10;99.90;;;;;;4962629;28;20270;-48
2023/02/03 08:38:38;;;;;;;2.83;1.90;;;4.10;99.90;;;;;;4966351;28;20178;-49
2023/02/03 08:41:11;;;;;;;2.93;1.87;;;4.10;99.90;;;;;;4964943;28;20596;-54
2023/02/03 08:43:38;;;;;;;3.20;2.13;;;4.10;99.90;;;;;;4964874;28;20691;-50
2023/02/03 08:46:05;;;;;;;3.77;1.70;;;4.10;99.90;;;;;;4965177;28;20188;-53
2023/02/03 08:48:31;;;;;;;3.53;2.07;;;4.10;99.90;;;;;;4964284;28;20178;-49
2023/02/03 08:50:57;;;;;;;2.33;1.87;;;4.10;99.90;;;;;;4967235;28;20174;-49
2023/02/03 08:53:22;;;;;;;2.53;1.60;;;4.10;99.90;;;;;;4963511;28;20218;-49
2023/02/03 08:55:48;;;;;;;4.30;1.60;;;4.10;99.90;;;;;;4970065;28;20189;-49
2023/02/03 08:58:14;;;;;;;1.67;1.50;;;4.10;99.90;;;;;;4971260;28;20182;-49
2023/02/03 09:00:40;;;;;;;1.87;1.60;;;4.20;99.90;;;;;;4971617;28;20177;-47
2023/02/03 09:03:06;;;;;;;2.90;1.70;;;4.30;99.90;;;;;;4964256;28;20202;-50
2023/02/03 09:05:32;;;;;;;2.93;1.50;;;4.30;99.90;;;;;;4960452;28;20190;-49
2023/02/03 09:07:58;;;;;;;4.50;1.83;;;4.40;99.90;;;;;;4963668;28;20182;-49
2023/02/03 09:10:24;;;;;;;3.00;1.50;;;4.30;99.90;;;;;;4962773;28;20170;-47
2023/02/03 09:12:49;;;;;;;2.23;1.50;;;4.30;99.90;;;;;;4963610;28;20296;-48
2023/02/03 09:15:15;;;;;;;1.83;1.50;;;4.40;99.90;;;;;;4964654;28;20229;-52
2023/02/03 09:17:40;;;;;;;5.03;2.13;;;4.40;99.90;;;;;;4964145;28;20178;-49
2023/02/03 09:20:07;;;;;;;1.87;1.60;;;4.40;99.90;;;;;;4965682;28;20190;-50
2023/02/03 09:22:33;;;;;;;2.07;1.37;;;4.40;99.90;;;;;;4960247;28;20200;-53
2023/02/03 09:24:59;;;;;;;2.03;1.67;;;4.40;99.90;;;;;;4961836;28;20653;-48
2023/02/03 09:27:24;;;;;;;2.70;1.70;;;4.50;99.90;;;;;;4963415;28;20178;-48
2023/02/03 09:29:50;;;;;;;2.00;1.73;;;4.50;99.90;;;;;;4967387;28;20195;-56
2023/02/03 09:32:15;;;;;;;2.20;1.50;;;4.50;99.90;;;;;;4965941;28;20209;-48
2023/02/03 09:34:41;;;;;;;5.60;1.67;;;4.40;99.90;;;;;;4963463;28;20684;-50
2023/02/03 09:37:07;;;;;;;2.17;1.50;;;4.50;99.90;;;;;;4966568;28;20265;-55
2023/02/03 09:39:33;;;;;;;1.93;1.63;;;4.50;99.90;;;;;;4971278;28;20269;-48
2023/02/03 09:42:19;;;;;;;1.83;1.60;;;4.50;99.90;;;;;;4960618;28;20269;-51
2023/02/03 09:44:56;;;;;;;1.77;1.67;;;4.50;99.90;;;;;;4956551;28;20183;-49
2023/02/03 09:47:27;;;;;;;1.60;1.50;;;4.50;99.90;;;;;;4975928;28;20205;-49
2023/02/03 09:49:59;;;;;;;2.97;1.70;;;4.60;99.90;;;;;;4971552;28;20188;-53
2023/02/03 09:52:29;;;;;;;1.87;1.70;;;4.60;99.90;;;;;;4975281;28;20288;-50
2023/02/03 09:55:24;;;;;;;1.83;1.43;;;4.70;99.90;;;;;;4967561;28;20166;-52
2023/02/03 09:57:56;;;;;;;2.43;1.67;;;4.60;99.90;;;;;;4971024;28;20200;-49
2023/02/03 10:00:47;;;;;;;1.60;1.50;;;4.60;99.90;;;;;;4974226;28;20178;-51
2023/02/03 10:03:31;;;;;;;1.30;1.20;;;4.60;99.90;;;;;;4962640;28;20217;-49
2023/02/03 10:06:19;;;;;;;3.87;1.63;;;4.70;99.90;;;;;;4972959;28;20660;-49
2023/02/03 10:09:11;;;;;;;1.87;1.60;;;4.70;99.90;;;;;;4973854;28;20189;-51
2023/02/03 10:12:09;;;;;;;1.87;1.53;;;4.60;99.90;;;;;;4912355;29;20682;-48
2023/02/03 10:15:05;;;;;;;2.37;1.70;;;4.80;99.90;;;;;;4909418;29;20294;-49
2023/02/03 10:17:52;;;;;;;3.40;1.63;;;4.80;99.90;;;;;;4876410;29;20280;-46
2023/02/03 10:20:22;;;;;;;2.70;1.50;;;4.80;99.90;;;;;;4874879;29;20275;-48
2023/02/03 10:22:52;;;;;;;1.40;1.30;;;;;;;;;;4876992;29;20692;-49
2023/02/03 10:25:35;;;;;;;1.80;1.40;;;5.00;99.90;;;;;;4877045;29;20280;-53
2023/02/03 10:28:03;;;;;;;1.40;1.30;;;4.80;99.90;;;;;;4876402;29;20693;-54
2023/02/03 10:30:44;;;;;;;1.60;1.50;;;5.00;99.90;;;;;;4876954;29;20216;-54
2023/02/03 10:33:12;;;;;;;1.70;1.30;;;4.90;99.90;;;;;;4873333;29;20248;-50
2023/02/03 10:36:08;;;;;;;1.70;1.60;;;4.90;99.90;;;;;;4874654;29;20241;-47
2023/02/03 10:39:06;;;;;;;1.90;1.60;;;4.90;99.90;;;;;;4876233;29;20181;-48
2023/02/03 10:41:32;;;;;;;1.57;1.30;;;4.50;99.90;;;;;;4875876;29;20224;-48
2023/02/03 10:44:06;;;;;;;1.47;1.37;;;4.60;99.90;;;;;;4874009;29;20215;-48
2023/02/03 10:46:38;;;;;;;2.63;1.50;;;5.10;99.90;;;;;;4871085;29;20276;-48
2023/02/03 10:49:04;;;;;;;2.43;1.63;;;4.90;99.90;;;;;;4901626;29;20199;-51
2023/02/03 10:51:36;;;;;;;3.70;1.67;;;4.60;99.90;;;;;;4913578;29;20602;-52
2023/02/03 10:54:02;;;;;;;1.17;1.13;;;;;;;;;;4928763;28;20760;-52
2023/02/03 10:56:37;;;;;;;2.10;1.23;;;5.00;99.90;;;;;;4965054;28;20182;-48
2023/02/03 10:59:03;;;;;;;2.07;1.50;;;4.90;99.90;;;;;;4965502;28;20201;-48
2023/02/03 11:01:28;;;;;;;2.77;1.63;;;;;;;;;;4970494;28;20620;-50
2023/02/03 11:04:02;;;;;;;1.30;1.20;;;4.90;99.90;;;;;;4973843;28;20182;-54
2023/02/03 11:06:29;;;;;;;3.23;1.40;;;5.00;99.90;;;;;;4974121;28;20588;-47
2023/02/03 11:08:54;;;;;;;2.20;1.67;;;4.80;99.90;;;;;;4980778;28;20213;-50
2023/02/03 11:11:25;;;;;;;1.70;1.17;;;4.80;99.90;;;;;;4974083;28;20217;-48
2023/02/03 11:14:10;;;;;;;1.40;1.30;;;4.90;99.90;;;;;;4973980;28;20198;-49
2023/02/03 11:16:35;;;;;;;2.00;1.20;;;5.00;99.90;;;;;;4973664;28;20209;-49
2023/02/03 11:19:03;;;;;;;2.27;1.40;;;4.90;99.90;;;;;;4972889;28;20182;-51
2023/02/03 11:21:42;;;;;;;1.60;1.50;;;5.20;99.90;;;;;;4973754;28;20296;-48
2023/02/03 11:24:21;;;;;;;1.73;1.40;;;4.80;99.90;;;;;;4973825;28;20213;-46
2023/02/03 11:26:53;;;;;;;1.80;1.60;;;4.80;99.90;;;;;;4971146;28;20653;-47
2023/02/03 11:29:25;;;;;;;1.47;1.37;;;5.10;99.90;;;;;;4954606;28;20214;-48
2023/02/03 11:31:53;;;;;;;2.77;1.60;;;4.90;99.90;;;;;;4954284;28;20692;-48
2023/02/03 11:34:24;;;;;;;1.47;1.37;;;4.90;99.90;;;;;;4954391;28;20218;-48
2023/02/03 11:36:50;;;;;;;2.43;1.40;;;4.50;99.90;;;;;;4954047;28;20581;-48
2023/02/03 11:39:27;;;;;;;1.87;1.50;;;4.80;99.90;;;;;;4954180;28;20189;-52
2023/02/03 11:41:53;;;;;;;2.20;1.30;;;4.60;99.90;;;;;;4954151;28;20681;-48
2023/02/03 11:44:27;;;;;;;1.37;1.20;;;4.90;99.90;;;;;;4954293;28;20190;-48
2023/02/03 11:47:10;;;;;;;2.13;1.40;;;5.00;99.90;;;;;;4953847;28;20185;-48
2023/02/03 11:49:55;;;;;;;1.87;1.40;;;;;;;;;;4955748;28;20178;-48
2023/02/03 11:52:43;;;;;;;1.37;1.27;;;5.10;99.90;;;;;;4968089;28;20208;-55
2023/02/03 11:55:31;;;;;;;2.57;1.47;;;4.90;99.90;;;;;;4968456;28;20189;-48
2023/02/03 11:58:32;;;;;;;2.30;1.27;;;5.00;99.90;;;;;;4969873;28;20268;-50
2023/02/03 12:01:19;;;;;;;1.60;1.43;;;5.10;99.90;;;;;;4965422;28;20720;-48
2023/02/03 12:04:15;;;;;;;1.90;1.40;;;5.30;99.90;;;;;;4962959;28;20691;-54
2023/02/03 12:07:18;;;;;;;3.63;1.40;;;5.20;99.90;;;;;;4964409;28;20256;-50
2023/02/03 12:10:04;;;;;;;1.57;1.40;;;5.50;99.90;;;;;;4965184;28;20192;-45
2023/02/03 12:12:50;;;;;;;1.90;1.40;;;5.40;99.90;;;;;;4965614;28;20236;-58
2023/02/03 12:15:37;;;;;;;2.13;1.20;;;5.40;99.90;;;;;;4965744;28;20260;-48
2023/02/03 12:18:06;;;;;;;1.67;1.40;;;5.50;99.90;;;;;;4965801;28;20184;-48
2023/02/03 12:21:09;;;;;;;1.40;1.30;;;5.40;99.90;;;;;;4972511;28;20203;-47
2023/02/03 12:24:03;;;;;;;1.33;1.23;;;5.70;99.90;;;;;;4959034;28;20178;-49
2023/02/03 12:27:00;;;;;;;2.83;1.23;;;5.50;99.90;;;;;;4956676;28;20186;-46
2023/02/03 12:29:50;;;;;;;1.37;1.27;;;5.30;99.90;;;;;;4963006;28;20185;-44
2023/02/03 12:32:18;;;;;;;2.67;1.40;;;5.20;99.90;;;;;;4909808;29;20735;-48
2023/02/03 12:35:04;;;;;;;1.23;1.00;;;5.30;99.90;;;;;;4910859;29;20227;-48
2023/02/03 12:37:44;;;;;;;2.03;1.00;;;5.30;99.90;;;;;;4911320;29;20223;-52
2023/02/03 12:40:35;;;;;;;1.43;1.33;;;5.50;99.90;;;;;;4912542;29;20724;-49
2023/02/03 12:43:38;;;;;;;1.20;1.10;;;5.20;99.90;;;;;;4911855;29;20345;-49
2023/02/03 12:46:15;;;;;;;1.63;1.30;;;5.20;99.90;;;;;;4907786;29;20195;-49
2023/02/03 12:48:46;;;;;;;1.80;1.20;;;5.60;99.90;;;;;;4912028;29;20669;-49
2023/02/03 12:51:22;;;;;;;1.50;1.40;;;5.30;99.90;;;;;;4912437;29;20196;-49
2023/02/03 12:53:55;;;;;;;1.00;1.00;;;5.50;99.90;;;;;;4911676;29;20199;-52
2023/02/03 12:56:26;;;;;;;2.00;1.47;;;5.10;99.90;;;;;;4912097;29;20192;-48
2023/02/03 12:59:04;;;;;;;1.70;1.00;;;5.40;99.90;;;;;;4912671;29;20254;-50
2023/02/03 13:01:41;;;;;;;1.33;1.10;;;5.30;99.90;;;;;;4912670;29;20230;-53
2023/02/03 13:04:32;;;;;;;1.50;1.40;;;5.70;99.90;;;;;;4906583;29;20192;-48
2023/02/03 13:07:25;;;;;;;1.17;1.17;;;;;;;;;;4910982;29;20194;-55
2023/02/03 13:09:58;;;;;;;1.57;1.30;;;;;;;;;;4944189;28;20273;-50
2023/02/03 13:12:24;;;;;;;1.40;1.30;;;5.40;99.90;;;;;;4971091;28;20213;-47
2023/02/03 13:15:09;;;;;;;2.20;1.23;;;5.30;99.90;;;;;;4970918;28;20214;-48
2023/02/03 13:17:47;;;;;;;2.10;1.00;;;5.20;99.90;;;;;;4976010;28;20240;-52
2023/02/03 13:20:18;;;;;;;1.40;1.30;;;5.00;99.90;;;;;;4971534;28;20185;-48
2023/02/03 13:22:44;;;;;;;1.10;1.03;;;5.20;99.90;;;;;;4970031;28;20200;-48
2023/02/03 13:25:30;;;;;;;1.87;1.43;;;4.90;99.90;;;;;;4969224;28;20251;-48
2023/02/03 13:28:14;;;;;;;1.40;1.30;;;5.40;99.90;;;;;;4971040;28;20181;-48
2023/02/03 13:30:56;;;;;;;1.97;1.20;;;5.00;99.90;;;;;;4969249;28;20546;-47
2023/02/03 13:33:49;;;;;;;1.53;1.40;;;5.50;99.90;;;;;;4964524;28;20209;-47
2023/02/03 13:36:17;;;;;;;1.47;1.20;;;;;;;;;;4964662;28;20185;-49
2023/02/03 13:39:01;;;;;;;1.77;1.27;;;;;;;;;;4964696;28;20178;-48
2023/02/03 13:41:45;;;;;;;1.90;1.30;;;5.30;99.90;;;;;;4970783;28;20196;-46
2023/02/03 13:44:14;;;;;;;1.50;1.40;;;5.40;99.90;;;;;;4959834;28;20273;-49
2023/02/03 13:46:40;;;;;;;2.67;1.67;;;;;;;;;;5005471;23;20237;-55
2023/02/03 13:49:07;;;;;;;2.40;1.40;;;4.90;99.90;;;;;;4953725;28;20210;-56
2023/02/03 13:51:37;;;;;;;2.20;1.10;;;5.30;99.90;;;;;;4955279;28;20629;-57
2023/02/03 13:54:13;;;;;;;1.73;1.43;;;5.00;99.90;;;;;;4954169;28;20226;-55